createdAt,value
2019-03-21T00:01:44.710Z,32.23
2019-03-21T00:12:04.682Z,23.03
2019-03-21T00:22:09.871Z,25.00
2019-03-21T00:32:14.941Z,25.00
2019-03-21T00:42:19.941Z,27.33
2019-03-21T00:52:24.927Z,21.17
2019-03-21T01:02:30.039Z,23.50
2019-03-21T01:12:35.011Z,20.83
2019-03-21T01:22:40.011Z,25.70
2019-03-21T01:32:45.409Z,30.43
2019-03-21T01:42:50.413Z,25.33
2019-03-21T01:52:55.310Z,28.13
2019-03-21T02:03:00.389Z,26.70
2019-03-21T02:13:05.621Z,23.53
2019-03-21T02:23:10.581Z,24.73
2019-03-21T02:33:36.393Z,21.27
2019-03-21T02:43:41.539Z,23.50
2019-03-21T02:53:46.450Z,21.97
2019-03-21T03:03:51.451Z,22.53
2019-03-21T03:13:56.436Z,19.87
2019-03-21T03:24:01.432Z,19.37
2019-03-21T03:34:06.475Z,24.23
2019-03-21T03:44:12.658Z,23.87
2019-03-21T03:54:17.746Z,20.57
2019-03-21T04:04:22.902Z,24.67
2019-03-21T04:14:27.828Z,27.23
2019-03-21T04:24:32.725Z,24.43
2019-03-21T04:34:37.613Z,27.73
2019-03-21T04:44:44.495Z,27.93
2019-03-21T04:54:49.251Z,29.23
2019-03-21T05:04:54.242Z,30.37
2019-03-21T05:14:59.234Z,34.30
2019-03-21T05:25:07.605Z,35.00
2019-03-21T05:35:12.566Z,35.25
2019-03-21T05:45:21.737Z,70.32
2019-03-21T05:55:26.918Z,44.47
2019-03-21T06:05:32.115Z,36.37
2019-03-21T06:15:40.211Z,30.47
2019-03-21T06:25:48.098Z,38.98
2019-03-21T06:35:52.997Z,51.20
2019-03-21T06:45:57.880Z,38.47
2019-03-21T06:56:02.780Z,43.97
2019-03-21T07:06:07.665Z,43.20
2019-03-21T07:16:12.565Z,34.30
2019-03-21T07:26:17.550Z,37.40
2019-03-21T07:36:22.556Z,40.80
2019-03-21T07:46:27.541Z,39.03
2019-03-21T07:56:32.427Z,39.07
2019-03-21T08:06:37.408Z,44.07
2019-03-21T08:16:42.307Z,39.57
2019-03-21T08:26:47.210Z,34.50
2019-03-21T08:36:52.193Z,37.87
2019-03-21T08:46:57.189Z,40.10
2019-03-21T08:57:02.079Z,40.63
2019-03-21T09:07:07.070Z,34.73
2019-03-21T09:17:12.072Z,32.13
2019-03-21T09:27:17.412Z,37.30
2019-03-21T09:37:22.377Z,32.67
2019-03-21T09:47:27.357Z,31.00
2019-03-21T09:57:32.362Z,30.17
2019-03-21T10:07:37.346Z,36.27
2019-03-21T10:17:42.361Z,36.50
2019-03-21T10:27:47.430Z,34.10
2019-03-21T10:37:52.432Z,35.70
2019-03-21T10:47:57.522Z,40.63
2019-03-21T10:58:02.404Z,37.77
2019-03-21T11:08:07.507Z,37.03
2019-03-21T11:18:12.506Z,43.92
2019-03-21T11:28:17.853Z,40.75
2019-03-21T11:38:23.002Z,42.12
2019-03-21T11:48:27.991Z,37.07
2019-03-21T11:58:32.979Z,36.47
2019-03-21T12:08:37.979Z,38.07
2019-03-21T12:18:42.864Z,45.07
2019-03-21T12:28:47.870Z,39.13
2019-03-21T12:38:52.953Z,41.47
2019-03-21T12:48:59.589Z,35.43
2019-03-21T12:59:04.952Z,33.77
2019-03-21T13:09:09.894Z,40.50
2019-03-21T13:19:14.780Z,40.60
2019-03-21T13:29:19.656Z,34.10
2019-03-21T13:39:24.643Z,45.83
2019-03-21T13:49:29.552Z,29.23
2019-03-21T13:59:34.540Z,31.97
2019-03-21T14:09:39.532Z,36.63
2019-03-21T14:19:44.426Z,35.37
2019-03-21T14:30:00.537Z,37.37
2019-03-21T14:39:57.273Z,31.27
2019-03-21T14:50:02.270Z,33.50
2019-03-21T15:00:12.921Z,33.23
2019-03-21T15:10:22.185Z,32.05
2019-03-21T15:20:27.190Z,29.63
2019-03-21T15:30:32.184Z,30.37
2019-03-21T15:40:37.176Z,28.53
2019-03-21T15:50:42.362Z,31.52
2019-03-21T16:00:47.476Z,28.33
2019-03-21T16:10:52.498Z,31.13
2019-03-21T16:20:57.939Z,33.13
2019-03-21T16:31:02.962Z,30.93
2019-03-21T16:41:08.092Z,35.45
2019-03-21T16:51:13.637Z,43.63
2019-03-21T17:01:18.944Z,44.40
2019-03-21T17:11:24.227Z,49.83
2019-03-21T17:21:29.559Z,59.20
2019-03-21T17:31:34.730Z,64.20
2019-03-21T17:41:39.806Z,73.73
2019-03-21T17:51:46.723Z,102.27
2019-03-21T18:01:52.371Z,94.10
2019-03-21T18:11:57.459Z,120.90
2019-03-21T18:22:02.751Z,96.43
2019-03-21T18:32:07.935Z,167.20
2019-03-21T18:42:13.070Z,83.77
2019-03-21T18:52:19.541Z,169.53
2019-03-21T19:02:24.943Z,133.60
2019-03-21T19:12:30.346Z,123.90
2019-03-21T19:22:35.629Z,127.97
2019-03-21T19:32:40.851Z,122.50
2019-03-21T19:42:46.145Z,112.87
2019-03-21T19:52:51.530Z,116.20
2019-03-21T20:02:57.024Z,98.00
2019-03-21T20:13:02.566Z,101.60
2019-03-21T20:23:07.973Z,77.57
2019-03-21T20:33:13.719Z,72.15
2019-03-21T20:43:19.266Z,78.43
2019-03-21T20:53:25.229Z,58.67
2019-03-21T21:03:30.551Z,59.67
2019-03-21T21:13:35.922Z,67.70
2019-03-21T21:23:41.289Z,67.57
2019-03-21T21:33:46.396Z,90.28
2019-03-21T21:43:51.679Z,70.47
2019-03-21T21:53:56.658Z,65.77
2019-03-21T22:04:04.932Z,80.27
2019-03-21T22:14:08.388Z,80.90
2019-03-21T22:24:13.403Z,103.00
2019-03-21T22:34:19.139Z,76.77
2019-03-21T22:44:24.199Z,149.10
2019-03-21T22:54:29.194Z,93.07
2019-03-21T23:04:34.178Z,98.50
2019-03-21T23:14:39.172Z,99.47
2019-03-21T23:24:44.164Z,95.17
2019-03-21T23:34:49.263Z,105.07
2019-03-21T23:44:54.254Z,92.53
2019-03-21T23:54:59.242Z,97.80
